Porto Lucena, Brazil
Current Conditions -  °F | °C
As of 8:00 AM on Saturday 20 Dec 2014 (Local Time) from SGEN Reporting Station
Clear Clear  
Wind Chill: 75°   Ceiling: Unl
Heat Index: 75°   Visibility: 6mi
Dew Point: 70°   Wind: 6mph
Humidity: 83%   Direction: 60°ENE
Pressure: 29.65"   Gusts: NA
Location:  27.86°S, 55.02°W
Report Text: SGEN 201000Z 06005KT CAVOK 24/21 Q1004
Loading
Personal Weather Stations






























Interactive Weather Map New forecast layout! Learn more

10-Day Weather Forecast

Advertisements
Track Severe Weather on mobile